sensor_id;sensor_type;location;lat;lon;timestamp;pressure;altitude;pressure_sealevel;temperature;humidity
14343;BME280;7255;53.596;9.960;2023-03-19T00:01:46;100944.53;;;12.19;nan
14343;BME280;7255;53.596;9.960;2023-03-19T00:04:14;100937.12;;;12.14;nan
14343;BME280;7255;53.596;9.960;2023-03-19T00:06:43;100942.72;;;12.01;nan
14343;BME280;7255;53.596;9.960;2023-03-19T00:09:09;100942.16;;;12.10;nan
14343;BME280;7255;53.596;9.960;2023-03-19T00:11:36;100954.28;;;12.01;nan
14343;BME280;7255;53.596;9.960;2023-03-19T00:14:02;100948.56;;;11.98;nan
14343;BME280;7255;53.596;9.960;2023-03-19T00:16:29;100946.91;;;11.97;nan
14343;BME280;7255;53.596;9.960;2023-03-19T00:18:55;100946.16;;;11.89;nan
14343;BME280;7255;53.596;9.960;2023-03-19T00:21:22;100952.09;;;11.98;nan
14343;BME280;7255;53.596;9.960;2023-03-19T00:23:49;100953.62;;;12.06;nan
14343;BME280;7255;53.596;9.960;2023-03-19T00:26:16;100952.19;;;12.03;nan
14343;BME280;7255;53.596;9.960;2023-03-19T00:28:42;100955.16;;;12.02;nan
14343;BME280;7255;53.596;9.960;2023-03-19T00:31:10;100958.87;;;12.01;nan
14343;BME280;7255;53.596;9.960;2023-03-19T00:33:37;100959.31;;;11.98;nan
14343;BME280;7255;53.596;9.960;2023-03-19T00:36:04;100958.59;;;11.90;nan
14343;BME280;7255;53.596;9.960;2023-03-19T00:38:31;100956.63;;;11.79;nan
14343;BME280;7255;53.596;9.960;2023-03-19T00:40:58;100952.16;;;11.73;nan
14343;BME280;7255;53.596;9.960;2023-03-19T00:43:25;100953.53;;;11.64;nan
14343;BME280;7255;53.596;9.960;2023-03-19T00:45:52;100962.19;;;11.66;nan
14343;BME280;7255;53.596;9.960;2023-03-19T00:48:18;100956.97;;;11.52;nan
14343;BME280;7255;53.596;9.960;2023-03-19T00:50:45;100962.81;;;11.49;nan
14343;BME280;7255;53.596;9.960;2023-03-19T00:53:11;100961.63;;;11.45;nan
14343;BME280;7255;53.596;9.960;2023-03-19T00:55:38;100951.72;;;11.39;nan
14343;BME280;7255;53.596;9.960;2023-03-19T00:58:05;100959.69;;;11.34;nan
14343;BME280;7255;53.596;9.960;2023-03-19T01:00:32;100966.69;;;11.35;nan
14343;BME280;7255;53.596;9.960;2023-03-19T01:02:59;100963.41;;;11.33;nan
14343;BME280;7255;53.596;9.960;2023-03-19T01:05:25;100969.59;;;11.33;nan
14343;BME280;7255;53.596;9.960;2023-03-19T01:07:52;100965.06;;;11.34;nan
14343;BME280;7255;53.596;9.960;2023-03-19T01:10:19;100969.97;;;11.37;nan
14343;BME280;7255;53.596;9.960;2023-03-19T01:12:46;100963.72;;;11.43;nan
14343;BME280;7255;53.596;9.960;2023-03-19T01:15:14;100966.19;;;11.45;nan
14343;BME280;7255;53.596;9.960;2023-03-19T01:17:41;100970.28;;;11.47;nan
14343;BME280;7255;53.596;9.960;2023-03-19T01:20:09;100974.75;;;11.53;nan
14343;BME280;7255;53.596;9.960;2023-03-19T01:22:37;100971.19;;;11.41;nan
14343;BME280;7255;53.596;9.960;2023-03-19T01:25:05;100968.34;;;11.36;nan
14343;BME280;7255;53.596;9.960;2023-03-19T01:27:31;100962.13;;;11.35;nan
14343;BME280;7255;53.596;9.960;2023-03-19T01:29:58;100965.50;;;11.31;nan
14343;BME280;7255;53.596;9.960;2023-03-19T01:32:25;100960.13;;;11.31;nan
14343;BME280;7255;53.596;9.960;2023-03-19T01:34:52;100972.97;;;11.29;nan
14343;BME280;7255;53.596;9.960;2023-03-19T01:37:18;100961.03;;;11.25;nan
14343;BME280;7255;53.596;9.960;2023-03-19T01:39:45;100955.66;;;11.25;nan
14343;BME280;7255;53.596;9.960;2023-03-19T01:42:11;100962.66;;;11.26;nan
14343;BME280;7255;53.596;9.960;2023-03-19T01:44:39;100953.19;;;11.23;nan
14343;BME280;7255;53.596;9.960;2023-03-19T01:47:13;100951.06;;;11.25;nan
14343;BME280;7255;53.596;9.960;2023-03-19T01:49:42;100963.78;;;11.36;nan
14343;BME280;7255;53.596;9.960;2023-03-19T01:52:10;100962.87;;;11.43;nan
14343;BME280;7255;53.596;9.960;2023-03-19T01:54:38;100963.25;;;11.46;nan
14343;BME280;7255;53.596;9.960;2023-03-19T01:57:07;100960.28;;;11.54;nan
14343;BME280;7255;53.596;9.960;2023-03-19T01:59:37;100953.31;;;11.47;nan
14343;BME280;7255;53.596;9.960;2023-03-19T02:02:09;100947.25;;;11.33;nan
14343;BME280;7255;53.596;9.960;2023-03-19T02:04:38;100950.25;;;11.43;nan
14343;BME280;7255;53.596;9.960;2023-03-19T02:07:08;100945.75;;;11.55;nan
14343;BME280;7255;53.596;9.960;2023-03-19T02:09:38;100950.62;;;11.65;nan
14343;BME280;7255;53.596;9.960;2023-03-19T02:12:06;100954.28;;;11.71;nan
14343;BME280;7255;53.596;9.960;2023-03-19T02:14:33;100954.28;;;11.71;nan
14343;BME280;7255;53.596;9.960;2023-03-19T02:16:59;100952.47;;;11.65;nan
14343;BME280;7255;53.596;9.960;2023-03-19T02:19:30;100953.59;;;11.57;nan
14343;BME280;7255;53.596;9.960;2023-03-19T02:22:01;100947.47;;;11.50;nan
14343;BME280;7255;53.596;9.960;2023-03-19T02:24:33;100939.78;;;11.35;nan
14343;BME280;7255;53.596;9.960;2023-03-19T02:27:02;100945.25;;;11.28;nan
14343;BME280;7255;53.596;9.960;2023-03-19T02:29:29;100944.50;;;11.21;nan
14343;BME280;7255;53.596;9.960;2023-03-19T02:31:55;100944.19;;;11.11;nan
14343;BME280;7255;53.596;9.960;2023-03-19T02:34:36;100947.66;;;10.93;nan
14343;BME280;7255;53.596;9.960;2023-03-19T02:37:07;100942.28;;;10.93;nan
14343;BME280;7255;53.596;9.960;2023-03-19T02:39:40;100949.00;;;10.84;nan
14343;BME280;7255;53.596;9.960;2023-03-19T02:42:11;100950.66;;;10.85;nan
14343;BME280;7255;53.596;9.960;2023-03-19T02:44:38;100946.09;;;10.85;nan
14343;BME280;7255;53.596;9.960;2023-03-19T02:47:05;100956.59;;;10.68;nan
14343;BME280;7255;53.596;9.960;2023-03-19T02:49:31;100944.25;;;10.61;nan
14343;BME280;7255;53.596;9.960;2023-03-19T02:51:57;100944.25;;;10.61;nan
14343;BME280;7255;53.596;9.960;2023-03-19T02:54:24;100941.78;;;10.59;nan
14343;BME280;7255;53.596;9.960;2023-03-19T02:56:51;100943.91;;;10.50;nan
14343;BME280;7255;53.596;9.960;2023-03-19T02:59:19;100947.69;;;10.43;nan
14343;BME280;7255;53.596;9.960;2023-03-19T03:01:45;100944.41;;;10.40;nan
14343;BME280;7255;53.596;9.960;2023-03-19T03:04:11;100942.75;;;10.39;nan
14343;BME280;7255;53.596;9.960;2023-03-19T03:06:40;100945.66;;;10.38;nan
14343;BME280;7255;53.596;9.960;2023-03-19T03:09:06;100945.72;;;10.31;nan
14343;BME280;7255;53.596;9.960;2023-03-19T03:11:33;100944.91;;;10.24;nan
14343;BME280;7255;53.596;9.960;2023-03-19T03:14:00;100937.06;;;10.23;nan
14343;BME280;7255;53.596;9.960;2023-03-19T03:16:27;100939.16;;;10.20;nan
14343;BME280;7255;53.596;9.960;2023-03-19T03:18:53;100932.53;;;10.16;nan
14343;BME280;7255;53.596;9.960;2023-03-19T03:21:20;100943.75;;;10.13;nan
14343;BME280;7255;53.596;9.960;2023-03-19T03:23:46;100943.34;;;10.10;nan
14343;BME280;7255;53.596;9.960;2023-03-19T03:26:13;100946.66;;;10.05;nan
14343;BME280;7255;53.596;9.960;2023-03-19T03:28:39;100949.56;;;10.03;nan
14343;BME280;7255;53.596;9.960;2023-03-19T03:31:06;100945.84;;;10.05;nan
14343;BME280;7255;53.596;9.960;2023-03-19T03:33:34;100949.56;;;10.03;nan
14343;BME280;7255;53.596;9.960;2023-03-19T03:36:01;100942.19;;;9.92;nan
14343;BME280;7255;53.596;9.960;2023-03-19T03:38:27;100934.75;;;9.94;nan
14343;BME280;7255;53.596;9.960;2023-03-19T03:40:54;100951.69;;;9.95;nan
14343;BME280;7255;53.596;9.960;2023-03-19T03:43:20;100947.94;;;9.96;nan
14343;BME280;7255;53.596;9.960;2023-03-19T03:45:47;100946.72;;;9.98;nan
14343;BME280;7255;53.596;9.960;2023-03-19T03:48:14;100942.97;;;9.99;nan
14343;BME280;7255;53.596;9.960;2023-03-19T03:50:42;100940.47;;;10.05;nan
14343;BME280;7255;53.596;9.960;2023-03-19T03:53:09;100944.56;;;10.07;nan
14343;BME280;7255;53.596;9.960;2023-03-19T03:55:37;100949.09;;;10.13;nan
14343;BME280;7255;53.596;9.960;2023-03-19T03:58:03;100951.13;;;10.18;nan
14343;BME280;7255;53.596;9.960;2023-03-19T04:00:30;100941.22;;;10.18;nan
14343;BME280;7255;53.596;9.960;2023-03-19T04:02:57;100943.66;;;10.20;nan
14343;BME280;7255;53.596;9.960;2023-03-19T04:05:23;100940.38;;;10.18;nan
14343;BME280;7255;53.596;9.960;2023-03-19T04:07:52;100940.44;;;10.11;nan
14343;BME280;7255;53.596;9.960;2023-03-19T04:10:18;100940.88;;;10.08;nan
14343;BME280;7255;53.596;9.960;2023-03-19T04:12:44;100940.06;;;10.08;nan
14343;BME280;7255;53.596;9.960;2023-03-19T04:15:11;100945.44;;;10.08;nan
14343;BME280;7255;53.596;9.960;2023-03-19T04:17:38;100946.63;;;10.12;nan
14343;BME280;7255;53.596;9.960;2023-03-19T04:20:05;100947.03;;;10.15;nan
14343;BME280;7255;53.596;9.960;2023-03-19T04:22:32;100954.47;;;10.13;nan
14343;BME280;7255;53.596;9.960;2023-03-19T04:25:00;100947.84;;;10.16;nan
14343;BME280;7255;53.596;9.960;2023-03-19T04:27:26;100952.78;;;10.19;nan
14343;BME280;7255;53.596;9.960;2023-03-19T04:29:52;100955.47;;;10.19;nan
14343;BME280;7255;53.596;9.960;2023-03-19T04:32:19;100951.50;;;10.21;nan
14343;BME280;7255;53.596;9.960;2023-03-19T04:34:46;100943.75;;;10.13;nan
14343;BME280;7255;53.596;9.960;2023-03-19T04:37:12;100947.12;;;10.02;nan
14343;BME280;7255;53.596;9.960;2023-03-19T04:39:38;100954.63;;;9.87;nan
14343;BME280;7255;53.596;9.960;2023-03-19T04:42:06;100949.72;;;9.77;nan
14343;BME280;7255;53.596;9.960;2023-03-19T04:44:33;100952.91;;;9.99;nan
14343;BME280;7255;53.596;9.960;2023-03-19T04:46:59;100953.91;;;10.05;nan
14343;BME280;7255;53.596;9.960;2023-03-19T04:49:26;100956.22;;;9.94;nan
14343;BME280;7255;53.596;9.960;2023-03-19T04:51:52;100946.44;;;9.68;nan
14343;BME280;7255;53.596;9.960;2023-03-19T04:54:19;100954.22;;;9.83;nan
14343;BME280;7255;53.596;9.960;2023-03-19T04:56:45;100949.63;;;9.90;nan
14343;BME280;7255;53.596;9.960;2023-03-19T04:59:13;100947.12;;;9.95;nan
14343;BME280;7255;53.596;9.960;2023-03-19T05:01:39;100951.59;;;10.08;nan
14343;BME280;7255;53.596;9.960;2023-03-19T05:04:06;100960.25;;;10.17;nan
14343;BME280;7255;53.596;9.960;2023-03-19T05:06:32;100966.41;;;10.24;nan
14343;BME280;7255;53.596;9.960;2023-03-19T05:08:59;100969.22;;;10.29;nan
14343;BME280;7255;53.596;9.960;2023-03-19T05:11:25;100964.31;;;10.26;nan
14343;BME280;7255;53.596;9.960;2023-03-19T05:13:52;100956.94;;;10.15;nan
14343;BME280;7255;53.596;9.960;2023-03-19T05:16:19;100958.94;;;10.26;nan
14343;BME280;7255;53.596;9.960;2023-03-19T05:18:46;100964.25;;;10.39;nan
14343;BME280;7255;53.596;9.960;2023-03-19T05:21:13;100957.66;;;10.35;nan
14343;BME280;7255;53.596;9.960;2023-03-19T05:23:40;100965.44;;;10.44;nan
14343;BME280;7255;53.596;9.960;2023-03-19T05:26:07;100965.19;;;10.52;nan
14343;BME280;7255;53.596;9.960;2023-03-19T05:28:34;100969.47;;;10.59;nan
14343;BME280;7255;53.596;9.960;2023-03-19T05:31:00;100964.44;;;10.70;nan
14343;BME280;7255;53.596;9.960;2023-03-19T05:33:30;100969.72;;;10.76;nan
14343;BME280;7255;53.596;9.960;2023-03-19T05:35:56;100960.66;;;10.77;nan
14343;BME280;7255;53.596;9.960;2023-03-19T05:38:22;100956.91;;;10.78;nan
14343;BME280;7255;53.596;9.960;2023-03-19T05:40:48;100961.84;;;10.82;nan
14343;BME280;7255;53.596;9.960;2023-03-19T05:43:15;100963.53;;;10.76;nan
14343;BME280;7255;53.596;9.960;2023-03-19T05:45:42;100948.22;;;10.76;nan
14343;BME280;7255;53.596;9.960;2023-03-19T05:48:08;100957.34;;;10.75;nan
14343;BME280;7255;53.596;9.960;2023-03-19T05:50:36;100951.97;;;10.75;nan
14343;BME280;7255;53.596;9.960;2023-03-19T05:53:02;100960.66;;;10.77;nan
14343;BME280;7255;53.596;9.960;2023-03-19T05:55:29;100963.53;;;10.76;nan
14343;BME280;7255;53.596;9.960;2023-03-19T05:57:55;100960.56;;;10.84;nan
14343;BME280;7255;53.596;9.960;2023-03-19T06:00:21;100968.75;;;10.96;nan
14343;BME280;7255;53.596;9.960;2023-03-19T06:02:48;100974.50;;;11.00;nan
14343;BME280;7255;53.596;9.960;2023-03-19T06:05:15;100976.88;;;10.64;nan
14343;BME280;7255;53.596;9.960;2023-03-19T06:07:43;100980.59;;;10.63;nan
14343;BME280;7255;53.596;9.960;2023-03-19T06:10:10;100975.09;;;10.76;nan
14343;BME280;7255;53.596;9.960;2023-03-19T06:12:37;100977.06;;;10.88;nan
14343;BME280;7255;53.596;9.960;2023-03-19T06:15:04;100976.22;;;10.94;nan
14343;BME280;7255;53.596;9.960;2023-03-19T06:17:30;100983.13;;;11.08;nan
14343;BME280;7255;53.596;9.960;2023-03-19T06:19:57;100980.13;;;11.16;nan
14343;BME280;7255;53.596;9.960;2023-03-19T06:22:23;100980.28;;;11.22;nan
14343;BME280;7255;53.596;9.960;2023-03-19T06:24:51;100982.06;;;11.28;nan
14343;BME280;7255;53.596;9.960;2023-03-19T06:27:17;100987.72;;;11.45;nan
14343;BME280;7255;53.596;9.960;2023-03-19T06:29:44;100989.66;;;11.56;nan
14343;BME280;7255;53.596;9.960;2023-03-19T06:32:11;100993.75;;;11.59;nan
14343;BME280;7255;53.596;9.960;2023-03-19T06:34:37;101005.25;;;11.66;nan
14343;BME280;7255;53.596;9.960;2023-03-19T06:37:04;101003.97;;;11.68;nan
14343;BME280;7255;53.596;9.960;2023-03-19T06:39:30;101013.75;;;11.81;nan
14343;BME280;7255;53.596;9.960;2023-03-19T06:41:58;101014.50;;;11.88;nan
14343;BME280;7255;53.596;9.960;2023-03-19T06:44:24;101005.78;;;11.93;nan
14343;BME280;7255;53.596;9.960;2023-03-19T06:46:51;101013.91;;;12.05;nan
14343;BME280;7255;53.596;9.960;2023-03-19T06:49:17;101015.50;;;12.12;nan
14343;BME280;7255;53.596;9.960;2023-03-19T06:51:44;101022.44;;;12.20;nan
14343;BME280;7255;53.596;9.960;2023-03-19T06:54:10;101016.94;;;12.27;nan
14343;BME280;7255;53.596;9.960;2023-03-19T06:56:37;101019.19;;;12.42;nan
14343;BME280;7255;53.596;9.960;2023-03-19T06:59:04;101022.66;;;12.61;nan
14343;BME280;7255;53.596;9.960;2023-03-19T07:01:31;101019.53;;;12.76;nan
14343;BME280;7255;53.596;9.960;2023-03-19T07:03:57;101021.78;;;12.90;nan
14343;BME280;7255;53.596;9.960;2023-03-19T07:06:23;101031.16;;;13.00;nan
14343;BME280;7255;53.596;9.960;2023-03-19T07:08:49;101035.97;;;13.09;nan
14343;BME280;7255;53.596;9.960;2023-03-19T07:11:16;101044.44;;;13.25;nan
14343;BME280;7255;53.596;9.960;2023-03-19T07:13:42;101050.56;;;13.32;nan
14343;BME280;7255;53.596;9.960;2023-03-19T07:16:10;101043.31;;;13.44;nan
14343;BME280;7255;53.596;9.960;2023-03-19T07:18:36;101047.63;;;13.57;nan
14343;BME280;7255;53.596;9.960;2023-03-19T07:21:03;101057.94;;;13.60;nan
14343;BME280;7255;53.596;9.960;2023-03-19T07:23:29;101040.47;;;13.63;nan
14343;BME280;7255;53.596;9.960;2023-03-19T07:25:56;101055.69;;;13.69;nan
14343;BME280;7255;53.596;9.960;2023-03-19T07:28:23;101057.34;;;13.70;nan
14343;BME280;7255;53.596;9.960;2023-03-19T07:30:50;101055.94;;;13.79;nan
14343;BME280;7255;53.596;9.960;2023-03-19T07:33:18;101060.81;;;13.82;nan
14343;BME280;7255;53.596;9.960;2023-03-19T07:35:44;101061.88;;;13.93;nan
14343;BME280;7255;53.596;9.960;2023-03-19T07:38:10;101064.91;;;14.09;nan
14343;BME280;7255;53.596;9.960;2023-03-19T07:40:37;101069.53;;;14.25;nan
14343;BME280;7255;53.596;9.960;2023-03-19T07:43:03;101066.44;;;14.33;nan
14343;BME280;7255;53.596;9.960;2023-03-19T07:45:29;101073.84;;;14.38;nan
14343;BME280;7255;53.596;9.960;2023-03-19T07:47:55;101072.38;;;14.47;nan
14343;BME280;7255;53.596;9.960;2023-03-19T07:50:23;101076.34;;;14.56;nan
14343;BME280;7255;53.596;9.960;2023-03-19T07:52:49;101079.12;;;14.61;nan
14343;BME280;7255;53.596;9.960;2023-03-19T07:55:16;101082.28;;;14.70;nan
14343;BME280;7255;53.596;9.960;2023-03-19T07:57:43;101088.50;;;14.71;nan
14343;BME280;7255;53.596;9.960;2023-03-19T08:00:10;101078.00;;;14.57;nan
14343;BME280;7255;53.596;9.960;2023-03-19T08:02:37;101084.22;;;14.58;nan
14343;BME280;7255;53.596;9.960;2023-03-19T08:05:03;101073.25;;;14.65;nan
14343;BME280;7255;53.596;9.960;2023-03-19T08:07:31;101078.66;;;14.65;nan
14343;BME280;7255;53.596;9.960;2023-03-19T08:09:57;101074.91;;;14.66;nan
14343;BME280;7255;53.596;9.960;2023-03-19T08:12:24;101080.81;;;14.79;nan
14343;BME280;7255;53.596;9.960;2023-03-19T08:14:50;101082.81;;;14.84;nan
14343;BME280;7255;53.596;9.960;2023-03-19T08:17:16;101080.78;;;14.62;nan
14343;BME280;7255;53.596;9.960;2023-03-19T08:19:43;101089.47;;;14.65;nan
14343;BME280;7255;53.596;9.960;2023-03-19T08:22:09;101091.50;;;14.86;nan
14343;BME280;7255;53.596;9.960;2023-03-19T08:24:38;101092.81;;;15.00;nan
14343;BME280;7255;53.596;9.960;2023-03-19T08:27:04;101086.41;;;15.07;nan
14343;BME280;7255;53.596;9.960;2023-03-19T08:29:31;101092.66;;;15.24;nan
14343;BME280;7255;53.596;9.960;2023-03-19T08:31:57;101096.91;;;15.37;nan
14343;BME280;7255;53.596;9.960;2023-03-19T08:34:25;101095.38;;;15.63;nan
14343;BME280;7255;53.596;9.960;2023-03-19T08:36:51;101096.38;;;15.74;nan
14343;BME280;7255;53.596;9.960;2023-03-19T08:39:17;101096.50;;;15.84;nan
14343;BME280;7255;53.596;9.960;2023-03-19T08:41:45;101099.28;;;15.89;nan
14343;BME280;7255;53.596;9.960;2023-03-19T08:44:11;101104.03;;;15.99;nan
14343;BME280;7255;53.596;9.960;2023-03-19T08:46:38;101097.66;;;15.88;nan
14343;BME280;7255;53.596;9.960;2023-03-19T08:49:06;101103.03;;;16.05;nan
14343;BME280;7255;53.596;9.960;2023-03-19T08:51:32;101106.53;;;16.28;nan
14343;BME280;7255;53.596;9.960;2023-03-19T08:53:59;101107.94;;;16.08;nan
14343;BME280;7255;53.596;9.960;2023-03-19T08:56:25;101105.91;;;16.21;nan
14343;BME280;7255;53.596;9.960;2023-03-19T08:58:55;101106.28;;;16.07;nan
14343;BME280;7255;53.596;9.960;2023-03-19T09:01:21;101101.87;;;16.01;nan
14343;BME280;7255;53.596;9.960;2023-03-19T09:03:48;101114.87;;;15.99;nan
14343;BME280;7255;53.596;9.960;2023-03-19T09:06:14;101119.03;;;15.85;nan
14343;BME280;7255;53.596;9.960;2023-03-19T09:08:41;101109.34;;;15.72;nan
14343;BME280;7255;53.596;9.960;2023-03-19T09:11:08;101117.63;;;15.65;nan
14343;BME280;7255;53.596;9.960;2023-03-19T09:13:35;101106.59;;;15.50;nan
14343;BME280;7255;53.596;9.960;2023-03-19T09:16:03;101114.28;;;15.41;nan
14343;BME280;7255;53.596;9.960;2023-03-19T09:18:30;101109.16;;;15.62;nan
14343;BME280;7255;53.596;9.960;2023-03-19T09:20:56;101118.50;;;15.88;nan
14343;BME280;7255;53.596;9.960;2023-03-19T09:23:23;101104.28;;;16.20;nan
14343;BME280;7255;53.596;9.960;2023-03-19T09:25:49;101116.62;;;16.10;nan
14343;BME280;7255;53.596;9.960;2023-03-19T09:28:16;101117.09;;;16.51;nan
14343;BME280;7255;53.596;9.960;2023-03-19T09:30:44;101115.94;;;16.97;nan
14343;BME280;7255;53.596;9.960;2023-03-19T09:33:12;101123.97;;;17.13;nan
14343;BME280;7255;53.596;9.960;2023-03-19T09:35:39;101121.06;;;16.93;nan
14343;BME280;7255;53.596;9.960;2023-03-19T09:38:06;101128.25;;;16.82;nan
14343;BME280;7255;53.596;9.960;2023-03-19T09:40:35;101129.69;;;17.17;nan
14343;BME280;7255;53.596;9.960;2023-03-19T09:43:15;101138.53;;;17.40;nan
14343;BME280;7255;53.596;9.960;2023-03-19T09:45:45;101137.88;;;17.60;nan
14343;BME280;7255;53.596;9.960;2023-03-19T09:48:17;101142.19;;;17.18;nan
14343;BME280;7255;53.596;9.960;2023-03-19T09:50:47;101138.53;;;17.02;nan
14343;BME280;7255;53.596;9.960;2023-03-19T09:53:20;101136.88;;;17.01;nan
14343;BME280;7255;53.596;9.960;2023-03-19T09:55:50;101140.69;;;17.00;nan
14343;BME280;7255;53.596;9.960;2023-03-19T09:58:20;101147.09;;;17.21;nan
14343;BME280;7255;53.596;9.960;2023-03-19T10:00:48;101146.88;;;17.65;nan
14343;BME280;7255;53.596;9.960;2023-03-19T10:03:38;101154.28;;;18.18;nan
14343;BME280;7255;53.596;9.960;2023-03-19T10:06:16;101153.59;;;17.90;nan
14343;BME280;7255;53.596;9.960;2023-03-19T10:09:03;101154.84;;;18.25;nan
14343;BME280;7255;53.596;9.960;2023-03-19T10:11:47;101160.06;;;18.32;nan
14343;BME280;7255;53.596;9.960;2023-03-19T10:14:59;101159.25;;;18.41;nan
14343;BME280;7255;53.596;9.960;2023-03-19T10:17:30;101160.94;;;18.53;nan
14343;BME280;7255;53.596;9.960;2023-03-19T10:20:03;101160.94;;;18.53;nan
14343;BME280;7255;53.596;9.960;2023-03-19T10:22:33;101164.66;;;18.31;nan
14343;BME280;7255;53.596;9.960;2023-03-19T10:25:02;101161.44;;;18.39;nan
14343;BME280;7255;53.596;9.960;2023-03-19T10:27:29;101154.38;;;18.49;nan
14343;BME280;7255;53.596;9.960;2023-03-19T10:29:55;101158.13;;;18.27;nan
14343;BME280;7255;53.596;9.960;2023-03-19T10:32:27;101158.34;;;18.20;nan
14343;BME280;7255;53.596;9.960;2023-03-19T10:35:04;101144.00;;;18.35;nan
14343;BME280;7255;53.596;9.960;2023-03-19T10:37:33;101153.56;;;18.48;nan
14343;BME280;7255;53.596;9.960;2023-03-19T10:39:59;101152.50;;;18.64;nan
14343;BME280;7255;53.596;9.960;2023-03-19T10:42:47;101156.84;;;18.60;nan
14343;BME280;7255;53.596;9.960;2023-03-19T10:45:26;101156.09;;;18.70;nan
14343;BME280;7255;53.596;9.960;2023-03-19T10:47:53;101154.44;;;18.69;nan
14343;BME280;7255;53.596;9.960;2023-03-19T10:50:27;101157.91;;;18.49;nan
14343;BME280;7255;53.596;9.960;2023-03-19T10:53:02;101147.34;;;18.58;nan
14343;BME280;7255;53.596;9.960;2023-03-19T10:55:30;101157.41;;;18.57;nan
14343;BME280;7255;53.596;9.960;2023-03-19T10:58:01;101159.25;;;18.41;nan
14343;BME280;7255;53.596;9.960;2023-03-19T11:00:29;101156.97;;;18.13;nan
14343;BME280;7255;53.596;9.960;2023-03-19T11:02:57;101162.16;;;18.19;nan
14343;BME280;7255;53.596;9.960;2023-03-19T11:05:29;101159.75;;;18.28;nan
14343;BME280;7255;53.596;9.960;2023-03-19T11:07:57;101158.47;;;18.51;nan
14343;BME280;7255;53.596;9.960;2023-03-19T11:10:26;101155.81;;;18.66;nan
14343;BME280;7255;53.596;9.960;2023-03-19T11:12:55;101160.16;;;18.73;nan
14343;BME280;7255;53.596;9.960;2023-03-19T11:15:26;101156.94;;;18.86;nan
14343;BME280;7255;53.596;9.960;2023-03-19T11:17:56;101154.50;;;18.84;nan
14343;BME280;7255;53.596;9.960;2023-03-19T11:20:28;101154.16;;;18.65;nan
14343;BME280;7255;53.596;9.960;2023-03-19T11:22:57;101155.84;;;18.08;nan
14343;BME280;7255;53.596;9.960;2023-03-19T11:25:27;101153.78;;;17.83;nan
14343;BME280;7255;53.596;9.960;2023-03-19T11:27:59;101155.19;;;17.16;nan
14343;BME280;7255;53.596;9.960;2023-03-19T11:30:32;101143.44;;;17.05;nan
14343;BME280;7255;53.596;9.960;2023-03-19T11:36:19;101137.00;;;16.84;nan
14343;BME280;7255;53.596;9.960;2023-03-19T11:39:00;101149.84;;;16.72;nan
14343;BME280;7255;53.596;9.960;2023-03-19T11:41:35;101144.16;;;16.96;nan
14343;BME280;7255;53.596;9.960;2023-03-19T11:44:13;101145.37;;;17.10;nan
14343;BME280;7255;53.596;9.960;2023-03-19T11:46:45;101146.41;;;17.04;nan
14343;BME280;7255;53.596;9.960;2023-03-19T11:49:26;101150.06;;;17.20;nan
14343;BME280;7255;53.596;9.960;2023-03-19T11:52:04;101146.75;;;17.45;nan
14343;BME280;7255;53.596;9.960;2023-03-19T11:54:43;101155.75;;;17.88;nan
14343;BME280;7255;53.596;9.960;2023-03-19T11:57:18;101159.34;;;18.04;nan
14343;BME280;7255;53.596;9.960;2023-03-19T12:00:10;101151.72;;;17.58;nan
14343;BME280;7255;53.596;9.960;2023-03-19T12:05:50;101155.19;;;17.16;nan
14343;BME280;7255;53.596;9.960;2023-03-19T12:08:30;101151.91;;;17.14;nan
14343;BME280;7255;53.596;9.960;2023-03-19T12:11:05;101149.34;;;17.29;nan
14343;BME280;7255;53.596;9.960;2023-03-19T12:14:03;101146.78;;;17.18;nan
14343;BME280;7255;53.596;9.960;2023-03-19T12:16:43;101138.59;;;17.12;nan
14343;BME280;7255;53.596;9.960;2023-03-19T12:19:30;101145.34;;;17.37;nan
14343;BME280;7255;53.596;9.960;2023-03-19T12:22:08;101141.97;;;17.62;nan
14343;BME280;7255;53.596;9.960;2023-03-19T12:24:54;101151.19;;;17.61;nan
14343;BME280;7255;53.596;9.960;2023-03-19T12:27:28;101157.22;;;17.68;nan
14343;BME280;7255;53.596;9.960;2023-03-19T12:30:02;101149.50;;;17.50;nan
14343;BME280;7255;53.596;9.960;2023-03-19T12:32:50;101149.03;;;17.63;nan
14343;BME280;7255;53.596;9.960;2023-03-19T12:35:26;101149.94;;;17.37;nan
14343;BME280;7255;53.596;9.960;2023-03-19T12:37:59;101138.53;;;17.40;nan
14343;BME280;7255;53.596;9.960;2023-03-19T12:40:34;101143.16;;;17.39;nan
14343;BME280;7255;53.596;9.960;2023-03-19T12:43:05;101142.06;;;17.35;nan
14343;BME280;7255;53.596;9.960;2023-03-19T12:45:38;101139.09;;;17.37;nan
14343;BME280;7255;53.596;9.960;2023-03-19T12:48:09;101131.72;;;17.69;nan
14343;BME280;7255;53.596;9.960;2023-03-19T12:50:39;101138.91;;;17.91;nan
14343;BME280;7255;53.596;9.960;2023-03-19T12:53:10;101152.31;;;17.65;nan
14343;BME280;7255;53.596;9.960;2023-03-19T12:55:44;101136.13;;;17.38;nan
14343;BME280;7255;53.596;9.960;2023-03-19T12:58:17;101136.06;;;17.76;nan
14343;BME280;7255;53.596;9.960;2023-03-19T13:00:51;101148.25;;;18.11;nan
14343;BME280;7255;53.596;9.960;2023-03-19T13:03:21;101140.41;;;17.72;nan
14343;BME280;7255;53.596;9.960;2023-03-19T13:05:54;101144.56;;;17.47;nan
14343;BME280;7255;53.596;9.960;2023-03-19T13:08:27;101149.50;;;17.50;nan
14343;BME280;7255;53.596;9.960;2023-03-19T13:10:57;101150.59;;;17.54;nan
14343;BME280;7255;53.596;9.960;2023-03-19T13:13:30;101146.03;;;17.60;nan
14343;BME280;7255;53.596;9.960;2023-03-19T13:16:07;101147.69;;;17.28;nan
14343;BME280;7255;53.596;9.960;2023-03-19T13:18:42;101141.91;;;17.15;nan
14343;BME280;7255;53.596;9.960;2023-03-19T13:21:21;101138.84;;;17.06;nan
14343;BME280;7255;53.596;9.960;2023-03-19T13:23:51;101141.50;;;17.01;nan
14343;BME280;7255;53.596;9.960;2023-03-19T13:26:26;101142.00;;;16.98;nan
14343;BME280;7255;53.596;9.960;2023-03-19T13:28:58;101136.19;;;16.84;nan
14343;BME280;7255;53.596;9.960;2023-03-19T13:31:26;101132.37;;;16.85;nan
14343;BME280;7255;53.596;9.960;2023-03-19T13:34:02;101137.47;;;17.08;nan
14343;BME280;7255;53.596;9.960;2023-03-19T13:36:35;101131.34;;;17.18;nan
14343;BME280;7255;53.596;9.960;2023-03-19T13:39:02;101129.09;;;17.10;nan